Airfield :
LOGIN :

Register | Disclaimer

   EN    FR    IT 

 










Legend :    VFR   Marginal VFR   IFR   Intensive IFR   Very Intensive IFR
Visi :
Ceiling :
>= 8 km
>= 3000ft
5 to 8 km
1000 to 3000 ft
1500m to 5 km
500 to 1000 ft
800 to 1500m
200 to 500 ft
< 800m
< 200 ft
Symbols :   Thunderstorms  Fog  Heavy snow  Heavy precipitations  Wind > 20 kt
SIGMETs :     Misc.  Thunderstorms  Icing  Turbulence  Mountain Waves  Volcanic Ashes







- Airport Elevation : 5600 ft
- IATA code : SMV


LSZS - Samedan

CURRENT METAR :
  • 200850Z VRB02KT CAVOK M12/M15 Q1010 RMK E

EXPIRED METARs :
  • 200820Z 15004KT 110V270 9999 FEW080 M13/M15 Q1010 RMK D
  • 200750Z VRB02KT 9999 FEW080 M15/M17 Q1010 RMK C
  • 200720Z 21003KT 160V280 CAVOK M15/M17 Q1010 RMK B
  • 200650Z VRB03KT CAVOK M15/M17 Q1010 RMK A
  • 200620Z AUTO 15004KT 090V230 CAVOK M15/M17 Q1010

TAF AMD TAF LSZS
Valid from the 20 at 09:00 until the 20 at 18:00 UTC


200905Z 2009/2018 VRB03KT CAVOK
BECMG 2009/2012 9999 BKN050 TXM04/2018Z
PROB40
TEMPO 2012/2018 22015G25KT
BECMG 2016/2018 -SN BKN020
ATIS : +41 81 834 93 24
No reported NOTAMs for that airfield.



MET'MAP, your aeronautical weather chart ! - Copyright ORBIFLY December 2007 - Disclaimer

ORBIFLY MET'MAP TEAM :

Programming & Development : Alexandra Zaïnal
Concept & Development : Baudouin d'Aumeries
Co-Development & Prog : Marc-Olivier Méhu
Technical & hardware support : Manuel Goepfert

Contact : metmap@orbifly.com




SOURCES & CREDITS :

   NOAA